Casper, WY (82601)

9:17 PM MST on February 11, 2016 (GMT -0700)
South Casper | | Change Station
CLOSE
Current Station
Personal Weather Station
Location: Casper, WY
Elevation: 5305 ft
Nearby Weather Stations

Elev 5305 ft 42.82 °N, 106.31 °W | Updated 4 minutes ago

Partly Cloudy
Partly Cloudy
44.0 °F
Feels Like 40 °F
N
7.0
Wind Variable Wind from ESE
Gusts 8.0 mph

Today
High -- | Low -- °F
--% Chance of Precip.
Yesterday
High -- | Low -- °F
Precip. -- in
Pressure 30.26 in
Visibility 10.0 miles
Clouds Clear
Windchill 40 °F
Dew Point 25 °F
Humidity 47%
Rainfall 0.00 in
Snow Depth Not available.
7:08 AM 5:31 PM
Waxing Crescent, 17% visible
METAR KCPR 120353Z AUTO 25009KT 10SM CLR 02/M03 A3024 RMK AO2 SLP245 T00221028
Pressure 30.26 in
Visibility 10.0 miles
Clouds Clear
Windchill 40 °F
Dew Point 25 °F
Humidity 47%
Rainfall 0.00 in
Snow Depth Not available.
7:08 AM 5:31 PM
Waxing Crescent, 17% visible
METAR KCPR 120353Z AUTO 25009KT 10SM CLR 02/M03 A3024 RMK AO2 SLP245 T00221028

10-Day Weather Forecast

Almanac

Astronomy

Feb. 11, 2016 Rise Set
Actual Time
Civil Twilight
Nautical Twilight
Astronomical Twilight
Moon
Length of Visible Light
Length of Day
Tomorrow will be .
, % of the Moon is Illuminated

Today's Extremes

State Highs State Lows

Community

WunderPhotos

Upload Photos

1,892,265 photos uploaded!

WunderBlog® & News

Nearby

Air Quality

  Air Quality AQ Index Pollutant
Not available.

Snow Depth

Station Depth Elevation

Earthquake Activity

City Distance Mag. Time & Date
Minimum magnitude displayed is 2.5.

Coastal Water Temperatures

Place Temperature

Stations

Nearby Weather Stations

Station Location Temp. Windchill Dew Point Humidity Wind Precip. Elev Updated Type
                   

Watches & Warnings

There are currently no watches in effect.